createdAt,value
2022-10-12T00:00:00.411Z,76.76
2022-10-12T00:02:27.596Z,76.74
2022-10-12T00:04:54.846Z,77.00
2022-10-12T00:07:21.961Z,76.92
2022-10-12T00:09:49.120Z,76.81
2022-10-12T00:12:16.218Z,77.22
2022-10-12T00:14:43.373Z,77.29
2022-10-12T00:17:10.876Z,77.46
2022-10-12T00:19:39.096Z,77.68
2022-10-12T00:22:06.493Z,77.51
2022-10-12T00:24:33.878Z,77.38
2022-10-12T00:27:01.057Z,77.12
2022-10-12T00:29:28.683Z,77.72
2022-10-12T00:31:55.916Z,77.70
2022-10-12T00:34:23.061Z,77.31
2022-10-12T00:36:50.356Z,77.31
2022-10-12T00:39:17.721Z,77.26
2022-10-12T00:41:45.076Z,77.43
2022-10-12T00:44:50.717Z,77.68
2022-10-12T00:47:24.055Z,77.52
2022-10-12T00:49:56.638Z,77.99
2022-10-12T00:52:27.953Z,77.93
2022-10-12T00:54:55.611Z,77.49
2022-10-12T00:57:23.858Z,77.87
2022-10-12T00:59:54.773Z,77.42
2022-10-12T01:02:23.707Z,77.64
2022-10-12T01:04:55.865Z,77.31
2022-10-12T01:07:23.413Z,77.66
2022-10-12T01:09:51.166Z,77.88
2022-10-12T01:12:19.400Z,77.98
2022-10-12T01:14:46.672Z,77.94
2022-10-12T01:17:14.035Z,78.11
2022-10-12T01:19:44.132Z,78.37
2022-10-12T01:22:17.163Z,77.82
2022-10-12T01:25:00.308Z,77.78
2022-10-12T01:27:47.800Z,77.40
2022-10-12T01:30:15.282Z,77.15
2022-10-12T01:33:01.050Z,77.54
2022-10-12T01:35:39.528Z,77.93
2022-10-12T01:38:15.780Z,78.29
2022-10-12T01:40:42.995Z,78.12
2022-10-12T01:43:10.334Z,78.17
2022-10-12T01:45:37.691Z,78.27
2022-10-12T01:48:05.590Z,77.98
2022-10-12T01:50:40.100Z,78.60
2022-10-12T01:53:22.640Z,79.88
2022-10-12T01:55:55.806Z,79.50
2022-10-12T01:58:26.171Z,79.40
2022-10-12T02:00:58.448Z,79.33
2022-10-12T02:03:31.301Z,79.14
2022-10-12T02:06:05.824Z,78.97
2022-10-12T02:08:49.019Z,79.04
2022-10-12T02:11:17.907Z,78.81
2022-10-12T02:13:48.295Z,79.29
2022-10-12T02:16:18.911Z,79.19
2022-10-12T02:18:48.257Z,79.34
2022-10-12T02:21:18.882Z,78.93
2022-10-12T02:23:47.833Z,78.81
2022-10-12T02:26:15.824Z,79.81
2022-10-12T02:28:45.290Z,80.02
2022-10-12T02:31:23.377Z,79.86
2022-10-12T02:33:57.808Z,79.97
2022-10-12T02:36:48.403Z,79.86
2022-10-12T02:39:22.077Z,79.31
2022-10-12T02:41:55.077Z,79.39
2022-10-12T02:44:26.436Z,79.67
2022-10-12T02:46:54.716Z,79.88
2022-10-12T02:49:24.490Z,80.72
2022-10-12T02:51:51.924Z,80.34
2022-10-12T02:54:20.204Z,80.16
2022-10-12T02:56:48.026Z,80.33
2022-10-12T02:59:15.987Z,80.08
2022-10-12T03:01:43.567Z,80.14
2022-10-12T03:04:12.653Z,80.50
2022-10-12T03:06:40.223Z,80.04
2022-10-12T03:09:07.683Z,80.03
2022-10-12T03:11:35.023Z,80.38
2022-10-12T03:14:02.326Z,80.30
2022-10-12T03:16:29.688Z,80.39
2022-10-12T03:18:56.831Z,80.61
2022-10-12T03:21:24.050Z,81.30
2022-10-12T03:23:51.547Z,81.54
2022-10-12T03:26:18.729Z,81.60
2022-10-12T03:28:46.046Z,81.45
2022-10-12T03:31:13.667Z,81.36
2022-10-12T03:33:40.926Z,81.37
2022-10-12T03:36:08.533Z,81.49
2022-10-12T03:38:35.721Z,81.75
2022-10-12T03:41:06.584Z,81.15
2022-10-12T03:43:34.645Z,81.45
2022-10-12T03:46:01.898Z,81.11
2022-10-12T03:48:29.228Z,81.30
2022-10-12T03:50:56.524Z,81.26
2022-10-12T03:53:23.748Z,81.56
2022-10-12T03:55:51.045Z,82.27
2022-10-12T03:58:18.765Z,81.84
2022-10-12T04:00:46.009Z,82.45
2022-10-12T04:03:13.325Z,82.80
2022-10-12T04:05:40.977Z,83.59
2022-10-12T04:08:08.205Z,84.12
2022-10-12T04:10:35.445Z,84.16
2022-10-12T04:13:02.634Z,84.08
2022-10-12T04:15:30.066Z,83.37
2022-10-12T04:17:57.221Z,82.87
2022-10-12T04:20:24.413Z,82.60
2022-10-12T04:22:51.633Z,82.15
2022-10-12T04:25:18.885Z,82.01
2022-10-12T04:27:46.043Z,82.50
2022-10-12T04:30:13.425Z,82.21
2022-10-12T04:32:40.642Z,81.64
2022-10-12T04:35:07.972Z,81.67
2022-10-12T04:37:35.271Z,81.92
2022-10-12T04:40:03.320Z,82.53
2022-10-12T04:42:30.470Z,82.13
2022-10-12T04:44:57.874Z,81.39
2022-10-12T04:47:25.225Z,82.12
2022-10-12T04:49:52.596Z,81.47
2022-10-12T04:52:19.831Z,81.30
2022-10-12T04:54:47.299Z,81.13
2022-10-12T04:57:14.452Z,81.46
2022-10-12T04:59:41.701Z,82.21
2022-10-12T05:02:08.890Z,82.05
2022-10-12T05:04:36.107Z,81.99
2022-10-12T05:07:03.338Z,81.69
2022-10-12T05:09:30.633Z,81.73
2022-10-12T05:11:57.876Z,81.37
2022-10-12T05:14:25.037Z,81.25
2022-10-12T05:16:52.333Z,81.22
2022-10-12T05:19:19.562Z,81.23
2022-10-12T05:21:46.794Z,81.01
2022-10-12T05:24:14.117Z,81.41
2022-10-12T05:26:41.340Z,81.76
2022-10-12T05:29:09.367Z,81.51
2022-10-12T05:31:36.559Z,81.48
2022-10-12T05:34:03.671Z,81.68
2022-10-12T05:36:30.824Z,81.42
2022-10-12T05:38:57.964Z,81.51
2022-10-12T05:41:25.229Z,81.75
2022-10-12T05:43:53.650Z,81.58
2022-10-12T05:46:23.021Z,81.16
2022-10-12T05:48:50.165Z,81.03
2022-10-12T05:51:17.365Z,80.71
2022-10-12T05:53:44.541Z,80.50
2022-10-12T05:56:11.776Z,80.49
2022-10-12T05:58:38.937Z,80.09
2022-10-12T06:01:10.821Z,80.17
2022-10-12T06:03:38.241Z,80.12
2022-10-12T06:06:06.982Z,80.28
2022-10-12T06:08:34.399Z,79.58
2022-10-12T06:11:01.729Z,79.48
2022-10-12T06:13:28.990Z,79.22
2022-10-12T06:15:56.171Z,79.37
2022-10-12T06:18:23.409Z,79.07
2022-10-12T06:21:03.991Z,79.26
2022-10-12T06:23:39.588Z,79.18
2022-10-12T06:26:06.978Z,79.42
2022-10-12T06:28:34.221Z,80.14
2022-10-12T06:31:01.717Z,80.32
2022-10-12T06:33:28.949Z,78.86
2022-10-12T06:35:56.531Z,78.26
2022-10-12T06:38:24.122Z,78.13
2022-10-12T06:40:53.469Z,78.00
2022-10-12T06:43:22.790Z,77.88
2022-10-12T06:45:50.515Z,77.63
2022-10-12T06:48:18.886Z,77.44
2022-10-12T06:50:46.668Z,77.53
2022-10-12T06:53:13.976Z,77.17
2022-10-12T06:55:41.325Z,76.84
2022-10-12T06:58:08.567Z,76.83
2022-10-12T07:00:36.435Z,76.77
2022-10-12T07:03:05.371Z,76.74
2022-10-12T07:05:32.702Z,76.42
2022-10-12T07:07:59.836Z,76.60
2022-10-12T07:10:28.236Z,76.75
2022-10-12T07:12:55.505Z,76.53
2022-10-12T07:15:22.632Z,76.51
2022-10-12T07:17:50.106Z,77.85
2022-10-12T07:20:17.422Z,78.53
2022-10-12T07:22:44.739Z,77.59
2022-10-12T07:25:11.937Z,76.74
2022-10-12T07:27:39.469Z,76.22
2022-10-12T07:30:07.420Z,75.85
2022-10-12T07:32:34.664Z,75.09
2022-10-12T07:35:01.830Z,75.10
2022-10-12T07:37:29.023Z,75.43
2022-10-12T07:39:57.696Z,74.96
2022-10-12T07:42:25.437Z,74.56
2022-10-12T07:44:52.901Z,73.92
2022-10-12T07:47:20.146Z,73.41
2022-10-12T07:49:47.664Z,72.68
2022-10-12T07:52:14.824Z,72.16
2022-10-12T07:54:42.082Z,71.07
2022-10-12T07:57:09.460Z,68.88
2022-10-12T07:59:36.647Z,66.42
2022-10-12T08:02:03.849Z,66.33
2022-10-12T08:04:31.104Z,66.36
2022-10-12T08:06:59.610Z,66.51
2022-10-12T08:09:26.828Z,66.06
2022-10-12T08:11:54.021Z,67.04
2022-10-12T08:14:21.108Z,67.98
2022-10-12T08:16:51.552Z,67.53
2022-10-12T08:19:18.902Z,65.50
2022-10-12T08:21:46.016Z,63.59
2022-10-12T08:24:13.544Z,62.70
2022-10-12T08:26:42.380Z,62.17
2022-10-12T08:29:09.981Z,61.38
2022-10-12T08:31:37.207Z,59.26
2022-10-12T08:34:04.640Z,58.76
2022-10-12T08:36:31.877Z,57.67
2022-10-12T08:38:59.560Z,55.43
2022-10-12T08:41:47.056Z,54.89
2022-10-12T08:44:28.576Z,54.31
2022-10-12T08:47:00.294Z,51.21
2022-10-12T08:49:30.380Z,51.29
2022-10-12T08:51:59.121Z,50.33
2022-10-12T08:54:31.897Z,49.52
2022-10-12T08:56:59.942Z,49.95
2022-10-12T08:59:28.440Z,50.01
2022-10-12T09:02:04.468Z,50.17
2022-10-12T09:04:31.638Z,50.06
2022-10-12T09:07:01.969Z,50.27
2022-10-12T09:09:44.034Z,50.85
2022-10-12T09:12:17.524Z,50.90
2022-10-12T09:14:45.417Z,51.33
2022-10-12T09:17:22.712Z,51.26
2022-10-12T09:20:00.685Z,50.55
2022-10-12T09:22:28.535Z,49.40
2022-10-12T09:24:57.382Z,49.61
2022-10-12T09:27:27.448Z,49.39
2022-10-12T09:29:58.060Z,48.81
2022-10-12T09:32:33.186Z,48.32
2022-10-12T09:35:01.149Z,49.06
2022-10-12T09:37:30.282Z,49.65
2022-10-12T09:39:57.981Z,50.47
2022-10-12T09:42:25.290Z,50.27
2022-10-12T09:45:03.296Z,47.38
2022-10-12T09:47:33.142Z,48.34
2022-10-12T09:50:02.269Z,48.45
2022-10-12T09:52:35.278Z,47.32
2022-10-12T09:55:05.725Z,46.63
2022-10-12T09:57:37.587Z,47.25
2022-10-12T10:00:06.613Z,48.17
2022-10-12T10:02:48.898Z,46.30
2022-10-12T10:05:50.566Z,46.40
2022-10-12T10:08:19.987Z,46.89
2022-10-12T10:10:51.376Z,46.97
2022-10-12T10:13:19.346Z,46.44
2022-10-12T10:15:48.803Z,46.71
2022-10-12T10:18:30.229Z,47.63
2022-10-12T10:20:58.504Z,48.22
2022-10-12T10:23:28.723Z,46.53
2022-10-12T10:26:01.803Z,46.62
2022-10-12T10:28:30.401Z,46.51
2022-10-12T10:31:03.114Z,46.74
2022-10-12T10:33:31.569Z,47.50
2022-10-12T10:36:07.704Z,46.97
2022-10-12T10:38:54.679Z,47.16
2022-10-12T10:41:25.191Z,47.13
2022-10-12T10:43:52.396Z,48.44
2022-10-12T10:46:29.249Z,48.25
2022-10-12T10:48:58.937Z,48.12
2022-10-12T10:51:40.451Z,47.73
2022-10-12T10:54:24.712Z,47.72
2022-10-12T10:56:53.689Z,47.63
2022-10-12T10:59:29.049Z,47.54
2022-10-12T11:01:58.849Z,48.03
2022-10-12T11:04:35.185Z,48.31
2022-10-12T11:07:15.630Z,48.03
2022-10-12T11:09:47.554Z,48.51
2022-10-12T11:12:21.434Z,46.45
2022-10-12T11:14:53.925Z,47.28
2022-10-12T11:17:34.768Z,46.62
2022-10-12T11:20:13.623Z,47.86
2022-10-12T11:22:44.327Z,47.90
2022-10-12T11:25:20.860Z,47.12
2022-10-12T11:27:52.783Z,47.25
2022-10-12T11:30:26.303Z,46.72
2022-10-12T11:32:53.691Z,47.40
2022-10-12T11:35:25.276Z,47.03
2022-10-12T11:38:00.494Z,47.16
2022-10-12T11:40:55.514Z,47.94
2022-10-12T11:43:26.641Z,47.37
2022-10-12T11:45:56.408Z,46.78
2022-10-12T11:48:27.399Z,46.40
2022-10-12T11:50:59.969Z,44.99
2022-10-12T11:53:34.947Z,44.44
2022-10-12T11:56:02.331Z,44.50
2022-10-12T11:58:48.737Z,44.12
2022-10-12T12:01:20.232Z,45.32
2022-10-12T12:04:17.144Z,45.85
2022-10-12T12:06:51.376Z,44.60
2022-10-12T12:09:42.490Z,45.10
2022-10-12T12:12:13.803Z,44.34
2022-10-12T12:14:46.623Z,41.77
2022-10-12T12:17:20.209Z,40.58
2022-10-12T12:19:51.733Z,41.05
2022-10-12T12:22:19.042Z,42.37
2022-10-12T12:24:58.638Z,42.16
2022-10-12T12:27:31.746Z,42.88
2022-10-12T12:30:02.511Z,43.92
2022-10-12T12:32:45.036Z,44.57
2022-10-12T12:35:22.801Z,44.70
2022-10-12T12:38:00.123Z,45.22
2022-10-12T12:40:27.800Z,46.61
2022-10-12T12:43:14.911Z,45.89
2022-10-12T12:45:52.957Z,45.37
2022-10-12T12:48:38.674Z,46.29
2022-10-12T12:51:11.658Z,46.15
2022-10-12T12:53:40.873Z,45.97
2022-10-12T12:56:18.570Z,45.91
2022-10-12T12:58:58.621Z,45.42
2022-10-12T13:01:44.938Z,46.15
2022-10-12T13:04:28.781Z,46.27
2022-10-12T13:07:32.075Z,46.62
2022-10-12T13:09:59.674Z,45.63
2022-10-12T13:12:32.870Z,45.99
2022-10-12T13:15:18.953Z,46.38
2022-10-12T13:17:57.629Z,46.08
2022-10-12T13:20:26.836Z,46.34
2022-10-12T13:22:54.885Z,46.55
2022-10-12T13:25:33.078Z,46.59
2022-10-12T13:28:02.769Z,45.80
2022-10-12T13:30:35.767Z,46.17
2022-10-12T13:33:09.669Z,46.52
2022-10-12T13:35:39.196Z,46.72
2022-10-12T13:38:17.845Z,46.59
2022-10-12T13:40:51.654Z,45.21
2022-10-12T13:43:27.860Z,45.31
2022-10-12T13:45:55.848Z,45.62
2022-10-12T13:48:46.527Z,45.47
2022-10-12T13:51:25.529Z,45.66
2022-10-12T13:53:53.554Z,45.44
2022-10-12T13:56:23.285Z,46.03
2022-10-12T13:58:58.225Z,46.43
2022-10-12T14:01:26.131Z,46.55
2022-10-12T14:04:01.941Z,45.46
2022-10-12T14:06:31.048Z,46.14
2022-10-12T14:09:01.642Z,45.90
2022-10-12T14:11:29.177Z,45.92
2022-10-12T14:13:56.824Z,45.37
2022-10-12T14:16:25.914Z,45.28
2022-10-12T14:18:53.105Z,45.48
2022-10-12T14:21:22.461Z,45.69
2022-10-12T14:23:54.372Z,45.42
2022-10-12T14:26:26.650Z,45.37
2022-10-12T14:28:54.157Z,45.84
2022-10-12T14:31:40.250Z,46.06
2022-10-12T14:34:32.216Z,46.46
2022-10-12T14:37:04.407Z,46.63
2022-10-12T14:39:32.053Z,46.65
2022-10-12T14:42:02.514Z,46.30
2022-10-12T14:44:30.257Z,46.69
2022-10-12T14:47:02.592Z,46.76
2022-10-12T14:49:40.348Z,46.56
2022-10-12T14:52:14.749Z,47.00
2022-10-12T14:54:42.049Z,47.21
2022-10-12T14:57:12.919Z,46.87
2022-10-12T14:59:40.660Z,47.03
2022-10-12T15:02:15.730Z,47.45
2022-10-12T15:04:42.937Z,47.38
2022-10-12T15:07:23.556Z,47.58
2022-10-12T15:09:51.522Z,47.49
2022-10-12T15:12:20.042Z,47.31
2022-10-12T15:14:47.424Z,47.63
2022-10-12T15:17:15.528Z,46.83
2022-10-12T15:19:43.777Z,47.05
2022-10-12T15:22:19.279Z,47.44
2022-10-12T15:24:47.032Z,47.95
2022-10-12T15:27:14.739Z,47.90
2022-10-12T15:29:42.689Z,47.56
2022-10-12T15:32:11.530Z,47.88
2022-10-12T15:34:39.249Z,48.45
2022-10-12T15:37:09.266Z,48.57
2022-10-12T15:39:36.830Z,48.39
2022-10-12T15:42:05.039Z,47.26
2022-10-12T15:44:39.096Z,47.55
2022-10-12T15:47:06.329Z,47.16
2022-10-12T15:49:33.484Z,46.63
2022-10-12T15:52:00.798Z,46.37
2022-10-12T15:54:27.981Z,46.74
2022-10-12T15:56:55.416Z,46.76
2022-10-12T15:59:22.801Z,47.26
2022-10-12T16:01:49.966Z,47.46
2022-10-12T16:04:17.815Z,47.67
2022-10-12T16:06:45.011Z,47.89
2022-10-12T16:09:12.213Z,47.83
2022-10-12T16:11:39.453Z,47.57
2022-10-12T16:14:07.100Z,47.87
2022-10-12T16:16:34.346Z,47.62
2022-10-12T16:19:01.424Z,47.99
2022-10-12T16:21:28.575Z,48.27
2022-10-12T16:23:55.761Z,48.42
2022-10-12T16:26:23.068Z,48.36
2022-10-12T16:28:50.333Z,48.28
2022-10-12T16:31:18.160Z,48.44
2022-10-12T16:33:45.561Z,48.44
2022-10-12T16:36:14.433Z,48.60
2022-10-12T16:38:42.140Z,48.64
2022-10-12T16:41:14.068Z,48.57
2022-10-12T16:43:41.249Z,49.03
2022-10-12T16:46:08.901Z,49.16
2022-10-12T16:48:36.247Z,49.20
2022-10-12T16:51:07.938Z,49.15
2022-10-12T16:53:35.321Z,49.26
2022-10-12T16:56:03.139Z,49.54
2022-10-12T16:58:30.318Z,49.45
2022-10-12T17:00:57.444Z,49.08
2022-10-12T17:03:25.007Z,49.59
2022-10-12T17:06:34.823Z,49.65
2022-10-12T17:09:01.936Z,49.70
2022-10-12T17:11:29.080Z,49.61
2022-10-12T17:13:57.067Z,49.68
2022-10-12T17:16:42.853Z,49.98
2022-10-12T17:19:10.013Z,50.30
2022-10-12T17:21:41.966Z,50.45
2022-10-12T17:24:10.079Z,50.32
2022-10-12T17:26:40.247Z,50.50
2022-10-12T17:29:09.387Z,49.98
2022-10-12T17:31:38.476Z,50.03
2022-10-12T17:34:07.182Z,50.10
2022-10-12T17:36:34.782Z,50.27
2022-10-12T17:39:02.009Z,50.33
2022-10-12T17:41:29.533Z,50.95
2022-10-12T17:43:57.614Z,51.15
2022-10-12T17:46:24.965Z,51.04
2022-10-12T17:48:52.111Z,51.48
2022-10-12T17:51:19.483Z,51.45
2022-10-12T17:53:46.778Z,51.63
2022-10-12T17:56:14.670Z,51.73
2022-10-12T17:58:42.377Z,52.38
2022-10-12T18:01:13.921Z,52.52
2022-10-12T18:03:42.838Z,52.93
2022-10-12T18:06:11.437Z,53.04
2022-10-12T18:08:39.074Z,52.98
2022-10-12T18:11:06.917Z,53.34
2022-10-12T18:13:35.113Z,53.53
2022-10-12T18:16:03.244Z,53.76
2022-10-12T18:18:30.370Z,54.25
2022-10-12T18:20:57.525Z,54.19
2022-10-12T18:23:24.706Z,54.25
2022-10-12T18:25:51.955Z,54.52
2022-10-12T18:28:19.196Z,55.07
2022-10-12T18:30:49.708Z,55.56
2022-10-12T18:33:17.258Z,56.06
2022-10-12T18:35:44.354Z,56.16
2022-10-12T18:38:11.529Z,56.28
2022-10-12T18:40:42.225Z,56.64
2022-10-12T18:43:10.088Z,56.94
2022-10-12T18:45:43.822Z,57.05
2022-10-12T18:48:11.719Z,57.44
2022-10-12T18:50:38.884Z,57.87
2022-10-12T18:53:06.052Z,57.68
2022-10-12T18:55:36.662Z,57.86
2022-10-12T18:58:03.898Z,58.07
2022-10-12T19:00:31.563Z,58.06
2022-10-12T19:02:58.923Z,58.13
2022-10-12T19:05:26.129Z,58.07
2022-10-12T19:07:53.407Z,58.40
2022-10-12T19:10:20.884Z,58.20
2022-10-12T19:12:48.152Z,58.35
2022-10-12T19:15:15.794Z,58.68
2022-10-12T19:17:43.100Z,58.64
2022-10-12T19:20:10.418Z,58.66
2022-10-12T19:22:44.944Z,59.13
2022-10-12T19:25:12.125Z,59.63
2022-10-12T19:27:39.379Z,59.91
2022-10-12T19:30:09.767Z,60.37
2022-10-12T19:32:37.235Z,60.76
2022-10-12T19:35:05.123Z,61.06
2022-10-12T19:37:32.604Z,61.30
2022-10-12T19:40:03.921Z,61.32
2022-10-12T19:42:33.912Z,61.58
2022-10-12T19:45:04.434Z,61.72
2022-10-12T19:47:32.287Z,62.09
2022-10-12T19:49:59.445Z,62.52
2022-10-12T19:52:26.592Z,62.50
2022-10-12T19:54:55.833Z,62.79
2022-10-12T19:57:25.540Z,62.92
2022-10-12T19:59:52.697Z,63.05
2022-10-12T20:02:20.145Z,63.38
2022-10-12T20:04:53.741Z,64.04
2022-10-12T20:07:21.323Z,64.45
2022-10-12T20:09:48.625Z,64.59
2022-10-12T20:12:16.001Z,64.83
2022-10-12T20:14:43.372Z,65.28
2022-10-12T20:17:10.548Z,65.76
2022-10-12T20:19:37.667Z,66.23
2022-10-12T20:22:04.856Z,66.96
2022-10-12T20:24:31.971Z,66.97
2022-10-12T20:26:59.219Z,66.99
2022-10-12T20:29:26.436Z,66.94
2022-10-12T20:31:53.569Z,67.06
2022-10-12T20:34:20.673Z,66.90
2022-10-12T20:36:47.805Z,67.27
2022-10-12T20:39:14.901Z,67.52
2022-10-12T20:41:42.503Z,67.46
2022-10-12T20:44:10.149Z,67.57
2022-10-12T20:46:37.304Z,67.70
2022-10-12T20:49:04.921Z,67.89
2022-10-12T20:51:36.229Z,68.07
2022-10-12T20:54:05.191Z,68.42
2022-10-12T20:56:33.160Z,68.97
2022-10-12T20:59:00.416Z,68.81
2022-10-12T21:01:28.356Z,68.72
2022-10-12T21:03:55.659Z,68.88
2022-10-12T21:06:23.623Z,69.09
2022-10-12T21:08:55.100Z,69.27
2022-10-12T21:11:22.617Z,69.30
2022-10-12T21:13:49.906Z,69.53
2022-10-12T21:16:17.634Z,69.60
2022-10-12T21:18:44.824Z,69.72
2022-10-12T21:21:16.198Z,70.01
2022-10-12T21:23:44.360Z,70.44
2022-10-12T21:26:21.680Z,70.73
2022-10-12T21:28:49.253Z,70.88
2022-10-12T21:31:16.697Z,70.88
2022-10-12T21:33:44.179Z,70.38
2022-10-12T21:36:12.836Z,70.46
2022-10-12T21:38:40.491Z,70.38
2022-10-12T21:41:08.355Z,70.51
2022-10-12T21:43:36.156Z,70.26
2022-10-12T21:46:04.699Z,70.58
2022-10-12T21:48:32.287Z,70.46
2022-10-12T21:51:01.427Z,70.65
2022-10-12T21:53:28.929Z,70.85
2022-10-12T21:55:56.213Z,71.06
2022-10-12T21:58:23.753Z,70.92
2022-10-12T22:00:51.064Z,70.97
2022-10-12T22:03:18.159Z,71.08
2022-10-12T22:05:45.263Z,71.04
2022-10-12T22:08:13.379Z,71.48
2022-10-12T22:10:40.876Z,71.53
2022-10-12T22:13:08.239Z,71.35
2022-10-12T22:15:35.746Z,71.61
2022-10-12T22:18:11.924Z,71.94
2022-10-12T22:20:39.237Z,72.38
2022-10-12T22:23:07.363Z,72.54
2022-10-12T22:25:34.574Z,72.20
2022-10-12T22:28:01.757Z,72.33
2022-10-12T22:30:29.810Z,72.26
2022-10-12T22:32:57.268Z,72.95
2022-10-12T22:35:24.554Z,72.67
2022-10-12T22:37:51.931Z,72.64
2022-10-12T22:40:19.141Z,72.79
2022-10-12T22:42:46.418Z,72.86
2022-10-12T22:45:14.730Z,72.81
2022-10-12T22:47:41.917Z,72.75
2022-10-12T22:50:10.505Z,73.05
2022-10-12T22:52:37.643Z,73.14
2022-10-12T22:55:05.050Z,73.42
2022-10-12T22:57:32.279Z,73.04
2022-10-12T22:59:59.499Z,73.04
2022-10-12T23:02:29.391Z,73.04
2022-10-12T23:04:56.942Z,73.17
2022-10-12T23:07:24.601Z,73.36
2022-10-12T23:09:51.943Z,73.45
2022-10-12T23:12:19.334Z,73.72
2022-10-12T23:14:46.815Z,73.64
2022-10-12T23:17:13.994Z,73.50
2022-10-12T23:19:41.237Z,73.47
2022-10-12T23:22:09.216Z,73.58
2022-10-12T23:24:36.445Z,73.94
2022-10-12T23:27:04.165Z,73.94
2022-10-12T23:29:33.171Z,74.00
2022-10-12T23:32:00.357Z,74.42
2022-10-12T23:34:27.845Z,76.20
2022-10-12T23:36:55.028Z,77.66
2022-10-12T23:39:22.614Z,77.13
2022-10-12T23:41:49.899Z,75.93
2022-10-12T23:44:17.570Z,75.96
2022-10-12T23:46:44.754Z,76.40
2022-10-12T23:49:12.013Z,76.65
2022-10-12T23:51:39.413Z,76.41
2022-10-12T23:54:06.571Z,77.01
2022-10-12T23:56:33.945Z,77.25
2022-10-12T23:59:01.744Z,77.51
